sensor_id;sensor_type;location;lat;lon;timestamp;pressure;altitude;pressure_sealevel;temperature;humidity
12879;BME280;20617;49.476;10.986;2023-04-28T00:00:11;98176.16;;;12.85;100.00
12879;BME280;20617;49.476;10.986;2023-04-28T00:02:16;98178.94;;;12.82;100.00
12879;BME280;20617;49.476;10.986;2023-04-28T00:04:21;98182.41;;;12.82;100.00
12879;BME280;20617;49.476;10.986;2023-04-28T00:06:27;98184.16;;;12.82;100.00
12879;BME280;20617;49.476;10.986;2023-04-28T00:08:32;98180.56;;;12.84;100.00
12879;BME280;20617;49.476;10.986;2023-04-28T00:10:37;98170.22;;;12.83;100.00
12879;BME280;20617;49.476;10.986;2023-04-28T00:12:45;98162.50;;;12.80;100.00
12879;BME280;20617;49.476;10.986;2023-04-28T00:14:50;98160.91;;;12.77;100.00
12879;BME280;20617;49.476;10.986;2023-04-28T00:16:57;98157.59;;;12.74;100.00
12879;BME280;20617;49.476;10.986;2023-04-28T00:19:04;98157.84;;;12.69;100.00
12879;BME280;20617;49.476;10.986;2023-04-28T00:21:09;98161.38;;;12.68;100.00
12879;BME280;20617;49.476;10.986;2023-04-28T00:23:14;98157.34;;;12.62;100.00
12879;BME280;20617;49.476;10.986;2023-04-28T00:25:19;98151.19;;;12.63;100.00
12879;BME280;20617;49.476;10.986;2023-04-28T00:27:24;98151.97;;;12.65;100.00
12879;BME280;20617;49.476;10.986;2023-04-28T00:29:29;98152.69;;;12.67;100.00
12879;BME280;20617;49.476;10.986;2023-04-28T00:31:34;98144.19;;;12.64;100.00
12879;BME280;20617;49.476;10.986;2023-04-28T00:33:42;98144.03;;;12.67;100.00
12879;BME280;20617;49.476;10.986;2023-04-28T00:35:47;98135.25;;;12.68;100.00
12879;BME280;20617;49.476;10.986;2023-04-28T00:37:52;98131.97;;;12.64;100.00
12879;BME280;20617;49.476;10.986;2023-04-28T00:39:57;98131.13;;;12.64;100.00
12879;BME280;20617;49.476;10.986;2023-04-28T00:42:02;98134.75;;;12.61;100.00
12879;BME280;20617;49.476;10.986;2023-04-28T00:44:08;98127.84;;;12.60;100.00
12879;BME280;20617;49.476;10.986;2023-04-28T00:46:21;98133.75;;;12.64;100.00
12879;BME280;20617;49.476;10.986;2023-04-28T00:48:28;98125.06;;;12.63;100.00
12879;BME280;20617;49.476;10.986;2023-04-28T00:50:35;98128.63;;;12.62;100.00
12879;BME280;20617;49.476;10.986;2023-04-28T00:52:42;98123.69;;;12.56;100.00
12879;BME280;20617;49.476;10.986;2023-04-28T00:54:46;98120.56;;;12.50;100.00
12879;BME280;20617;49.476;10.986;2023-04-28T00:56:53;98124.09;;;12.49;100.00
12879;BME280;20617;49.476;10.986;2023-04-28T00:58:58;98128.72;;;12.43;100.00
12879;BME280;20617;49.476;10.986;2023-04-28T01:01:05;98122.72;;;12.41;100.00
12879;BME280;20617;49.476;10.986;2023-04-28T01:03:10;98121.81;;;12.42;100.00
12879;BME280;20617;49.476;10.986;2023-04-28T01:05:15;98116.66;;;12.41;100.00
12879;BME280;20617;49.476;10.986;2023-04-28T01:07:23;98119.28;;;12.41;100.00
12879;BME280;20617;49.476;10.986;2023-04-28T01:09:29;98108.75;;;12.42;100.00
12879;BME280;20617;49.476;10.986;2023-04-28T01:11:34;98101.66;;;12.44;100.00
12879;BME280;20617;49.476;10.986;2023-04-28T01:13:44;98100.84;;;12.44;100.00
12879;BME280;20617;49.476;10.986;2023-04-28T01:15:49;98093.84;;;12.44;100.00
12879;BME280;20617;49.476;10.986;2023-04-28T01:17:54;98099.06;;;12.44;100.00
12879;BME280;20617;49.476;10.986;2023-04-28T01:20:00;98091.66;;;12.37;100.00
12879;BME280;20617;49.476;10.986;2023-04-28T01:22:05;98086.34;;;12.38;100.00
12879;BME280;20617;49.476;10.986;2023-04-28T01:24:14;98093.50;;;12.35;100.00
12879;BME280;20617;49.476;10.986;2023-04-28T01:26:19;98093.50;;;12.35;100.00
12879;BME280;20617;49.476;10.986;2023-04-28T01:28:24;98090.72;;;12.38;100.00
12879;BME280;20617;49.476;10.986;2023-04-28T01:30:29;98087.00;;;12.42;100.00
12879;BME280;20617;49.476;10.986;2023-04-28T01:32:34;98093.84;;;12.44;100.00
12879;BME280;20617;49.476;10.986;2023-04-28T01:34:39;98092.78;;;12.49;100.00
12879;BME280;20617;49.476;10.986;2023-04-28T01:36:44;98094.38;;;12.51;100.00
12879;BME280;20617;49.476;10.986;2023-04-28T01:38:49;98089.91;;;12.53;100.00
12879;BME280;20617;49.476;10.986;2023-04-28T01:40:56;98096.00;;;12.54;100.00
12879;BME280;20617;49.476;10.986;2023-04-28T01:43:03;98089.06;;;12.53;100.00
12879;BME280;20617;49.476;10.986;2023-04-28T01:45:09;98094.44;;;12.50;100.00
12879;BME280;20617;49.476;10.986;2023-04-28T01:47:14;98079.88;;;12.45;100.00
12879;BME280;20617;49.476;10.986;2023-04-28T01:49:20;98076.44;;;12.45;100.00
12879;BME280;20617;49.476;10.986;2023-04-28T01:51:25;98078.88;;;12.48;100.00
12879;BME280;20617;49.476;10.986;2023-04-28T01:53:30;98073.88;;;12.43;100.00
12879;BME280;20617;49.476;10.986;2023-04-28T01:55:36;98077.50;;;12.41;100.00
12879;BME280;20617;49.476;10.986;2023-04-28T01:57:44;98076.72;;;12.39;100.00
12879;BME280;20617;49.476;10.986;2023-04-28T01:59:49;98073.44;;;12.35;100.00
12879;BME280;20617;49.476;10.986;2023-04-28T02:01:55;98077.06;;;12.33;100.00
12879;BME280;20617;49.476;10.986;2023-04-28T02:04:01;98073.94;;;12.26;100.00
12879;BME280;20617;49.476;10.986;2023-04-28T02:06:09;98073.94;;;12.26;100.00
12879;BME280;20617;49.476;10.986;2023-04-28T02:08:13;98082.75;;;12.23;100.00
12879;BME280;20617;49.476;10.986;2023-04-28T02:10:19;98077.47;;;12.25;100.00
12879;BME280;20617;49.476;10.986;2023-04-28T02:12:23;98078.47;;;12.22;100.00
12879;BME280;20617;49.476;10.986;2023-04-28T02:14:31;98072.25;;;12.25;100.00
12879;BME280;20617;49.476;10.986;2023-04-28T02:16:36;98070.53;;;12.24;100.00
12879;BME280;20617;49.476;10.986;2023-04-28T02:18:45;98074.88;;;12.25;100.00
12879;BME280;20617;49.476;10.986;2023-04-28T02:20:50;98065.59;;;12.19;100.00
12879;BME280;20617;49.476;10.986;2023-04-28T02:22:55;98065.59;;;12.19;100.00
12879;BME280;20617;49.476;10.986;2023-04-28T02:25:03;98062.97;;;12.19;100.00
12879;BME280;20617;49.476;10.986;2023-04-28T02:27:11;98067.03;;;12.25;100.00
12879;BME280;20617;49.476;10.986;2023-04-28T02:29:16;98058.28;;;12.26;100.00
12879;BME280;20617;49.476;10.986;2023-04-28T02:31:23;98047.81;;;12.26;100.00
12879;BME280;20617;49.476;10.986;2023-04-28T02:33:28;98048.75;;;12.25;100.00
12879;BME280;20617;49.476;10.986;2023-04-28T02:35:33;98040.16;;;12.23;100.00
12879;BME280;20617;49.476;10.986;2023-04-28T02:37:38;98049.75;;;12.22;100.00
12879;BME280;20617;49.476;10.986;2023-04-28T02:39:43;98057.34;;;12.27;100.00
12879;BME280;20617;49.476;10.986;2023-04-28T02:41:48;98048.50;;;12.30;100.00
12879;BME280;20617;49.476;10.986;2023-04-28T02:43:53;98041.50;;;12.30;100.00
12879;BME280;20617;49.476;10.986;2023-04-28T02:45:58;98045.66;;;12.34;100.00
12879;BME280;20617;49.476;10.986;2023-04-28T02:48:06;98046.56;;;12.33;100.00
12879;BME280;20617;49.476;10.986;2023-04-28T02:50:11;98048.28;;;12.34;100.00
12879;BME280;20617;49.476;10.986;2023-04-28T02:52:16;98043.97;;;12.33;100.00
12879;BME280;20617;49.476;10.986;2023-04-28T02:54:21;98033.28;;;12.38;100.00
12879;BME280;20617;49.476;10.986;2023-04-28T02:56:32;98030.44;;;12.42;100.00
12879;BME280;20617;49.476;10.986;2023-04-28T02:58:38;98032.13;;;12.43;100.00
12879;BME280;20617;49.476;10.986;2023-04-28T03:00:43;98028.56;;;12.44;100.00
12879;BME280;20617;49.476;10.986;2023-04-28T03:02:50;98025.97;;;12.44;100.00
12879;BME280;20617;49.476;10.986;2023-04-28T03:04:58;98033.78;;;12.44;100.00
12879;BME280;20617;49.476;10.986;2023-04-28T03:07:04;98026.22;;;12.40;100.00
12879;BME280;20617;49.476;10.986;2023-04-28T03:09:11;98021.75;;;12.42;100.00
12879;BME280;20617;49.476;10.986;2023-04-28T03:11:16;98021.69;;;12.43;100.00
12879;BME280;20617;49.476;10.986;2023-04-28T03:13:21;98013.84;;;12.43;100.00
12879;BME280;20617;49.476;10.986;2023-04-28T03:15:26;98009.56;;;12.42;100.00
12879;BME280;20617;49.476;10.986;2023-04-28T03:17:31;98011.56;;;12.37;100.00
12879;BME280;20617;49.476;10.986;2023-04-28T03:19:37;98000.34;;;12.35;100.00
12879;BME280;20617;49.476;10.986;2023-04-28T03:21:45;97991.63;;;12.36;100.00
12879;BME280;20617;49.476;10.986;2023-04-28T03:23:50;97989.06;;;12.35;100.00
12879;BME280;20617;49.476;10.986;2023-04-28T03:25:56;97989.00;;;12.36;100.00
12879;BME280;20617;49.476;10.986;2023-04-28T03:28:01;97988.75;;;12.41;100.00
12879;BME280;20617;49.476;10.986;2023-04-28T03:30:07;97992.97;;;12.43;100.00
12879;BME280;20617;49.476;10.986;2023-04-28T03:32:12;97985.97;;;12.44;100.00
12879;BME280;20617;49.476;10.986;2023-04-28T03:34:17;97979.75;;;12.46;100.00
12879;BME280;20617;49.476;10.986;2023-04-28T03:36:22;97981.69;;;12.43;100.00
12879;BME280;20617;49.476;10.986;2023-04-28T03:38:34;97987.91;;;12.40;100.00
12879;BME280;20617;49.476;10.986;2023-04-28T03:40:39;97979.31;;;12.38;100.00
12879;BME280;20617;49.476;10.986;2023-04-28T03:42:46;97973.34;;;12.36;100.00
12879;BME280;20617;49.476;10.986;2023-04-28T03:45:00;97981.91;;;12.38;100.00
12879;BME280;20617;49.476;10.986;2023-04-28T03:47:05;97978.31;;;12.41;100.00
12879;BME280;20617;49.476;10.986;2023-04-28T03:49:14;97982.69;;;12.40;100.00
12879;BME280;20617;49.476;10.986;2023-04-28T03:51:18;97980.69;;;12.45;100.00
12879;BME280;20617;49.476;10.986;2023-04-28T03:53:23;97978.97;;;12.44;100.00
12879;BME280;20617;49.476;10.986;2023-04-28T03:55:31;97978.91;;;12.46;100.00
12879;BME280;20617;49.476;10.986;2023-04-28T03:57:36;97967.47;;;12.49;100.00
12879;BME280;20617;49.476;10.986;2023-04-28T03:59:41;97971.75;;;12.50;100.00
12879;BME280;20617;49.476;10.986;2023-04-28T04:01:46;97971.75;;;12.50;100.00
12879;BME280;20617;49.476;10.986;2023-04-28T04:03:51;97964.50;;;12.55;100.00
12879;BME280;20617;49.476;10.986;2023-04-28T04:05:57;97967.00;;;12.56;100.00
12879;BME280;20617;49.476;10.986;2023-04-28T04:08:02;97965.69;;;12.49;100.00
12879;BME280;20617;49.476;10.986;2023-04-28T04:10:08;97954.06;;;12.55;100.00
12879;BME280;20617;49.476;10.986;2023-04-28T04:12:18;97961.72;;;12.58;100.00
12879;BME280;20617;49.476;10.986;2023-04-28T04:14:23;97954.56;;;12.61;100.00
12879;BME280;20617;49.476;10.986;2023-04-28T04:16:29;97953.47;;;12.65;100.00
12879;BME280;20617;49.476;10.986;2023-04-28T04:18:34;97952.53;;;12.66;100.00
12879;BME280;20617;49.476;10.986;2023-04-28T04:20:54;97951.94;;;12.61;100.00
12879;BME280;20617;49.476;10.986;2023-04-28T04:22:59;97943.22;;;12.62;100.00
12879;BME280;20617;49.476;10.986;2023-04-28T04:25:06;97954.56;;;12.61;100.00
12879;BME280;20617;49.476;10.986;2023-04-28T04:27:11;97961.38;;;12.64;100.00
12879;BME280;20617;49.476;10.986;2023-04-28T04:29:19;97961.97;;;12.69;100.00
12879;BME280;20617;49.476;10.986;2023-04-28T04:31:25;97959.25;;;12.71;100.00
12879;BME280;20617;49.476;10.986;2023-04-28T04:33:30;97958.09;;;12.76;100.00
12879;BME280;20617;49.476;10.986;2023-04-28T04:35:36;97959.78;;;12.77;100.00
12879;BME280;20617;49.476;10.986;2023-04-28T04:37:41;97957.84;;;12.81;100.00
12879;BME280;20617;49.476;10.986;2023-04-28T04:39:47;97956.13;;;12.80;100.00
12879;BME280;20617;49.476;10.986;2023-04-28T04:41:52;97953.28;;;12.84;100.00
12879;BME280;20617;49.476;10.986;2023-04-28T04:44:25;97959.28;;;12.86;100.00
12879;BME280;20617;49.476;10.986;2023-04-28T04:46:31;97954.22;;;12.83;100.00
12879;BME280;20617;49.476;10.986;2023-04-28T04:48:36;97956.84;;;12.83;100.00
12879;BME280;20617;49.476;10.986;2023-04-28T04:50:41;97956.66;;;12.86;100.00
12879;BME280;20617;49.476;10.986;2023-04-28T04:52:46;97959.94;;;12.90;100.00
12879;BME280;20617;49.476;10.986;2023-04-28T04:54:51;97960.53;;;12.95;100.00
12879;BME280;20617;49.476;10.986;2023-04-28T04:56:58;97957.81;;;12.97;100.00
12879;BME280;20617;49.476;10.986;2023-04-28T04:59:26;97957.63;;;13.00;100.00
12879;BME280;20617;49.476;10.986;2023-04-28T05:01:51;97965.66;;;12.97;100.00
12879;BME280;20617;49.476;10.986;2023-04-28T05:03:57;97959.59;;;12.96;100.00
12879;BME280;20617;49.476;10.986;2023-04-28T05:06:03;97963.88;;;12.97;100.00
12879;BME280;20617;49.476;10.986;2023-04-28T05:08:20;97964.75;;;12.98;100.00
12879;BME280;20617;49.476;10.986;2023-04-28T05:10:25;97976.88;;;12.99;100.00
12879;BME280;20617;49.476;10.986;2023-04-28T05:12:29;97972.66;;;12.96;100.00
12879;BME280;20617;49.476;10.986;2023-04-28T05:14:37;97969.97;;;12.98;100.00
12879;BME280;20617;49.476;10.986;2023-04-28T05:16:44;97970.69;;;13.00;100.00
12879;BME280;20617;49.476;10.986;2023-04-28T05:18:55;97970.88;;;12.97;100.00
12879;BME280;20617;49.476;10.986;2023-04-28T05:21:00;97966.41;;;12.99;100.00
12879;BME280;20617;49.476;10.986;2023-04-28T05:23:07;97971.88;;;12.94;100.00
12879;BME280;20617;49.476;10.986;2023-04-28T05:25:12;97970.22;;;12.93;100.00
12879;BME280;20617;49.476;10.986;2023-04-28T05:27:18;97971.03;;;12.94;100.00
12879;BME280;20617;49.476;10.986;2023-04-28T05:29:24;97975.44;;;12.93;100.00
12879;BME280;20617;49.476;10.986;2023-04-28T05:31:31;97970.31;;;12.91;100.00
12879;BME280;20617;49.476;10.986;2023-04-28T05:33:37;97966.34;;;13.00;100.00
12879;BME280;20617;49.476;10.986;2023-04-28T05:35:43;97971.41;;;13.03;100.00
12879;BME280;20617;49.476;10.986;2023-04-28T05:37:48;97971.03;;;13.09;100.00
12879;BME280;20617;49.476;10.986;2023-04-28T05:39:54;97969.84;;;13.15;100.00
12879;BME280;20617;49.476;10.986;2023-04-28T05:41:59;97967.31;;;13.13;100.00
12879;BME280;20617;49.476;10.986;2023-04-28T05:44:08;97963.09;;;13.11;100.00
12879;BME280;20617;49.476;10.986;2023-04-28T05:46:13;97965.13;;;13.06;100.00
12879;BME280;20617;49.476;10.986;2023-04-28T05:48:34;97974.22;;;13.14;100.00
12879;BME280;20617;49.476;10.986;2023-04-28T05:50:39;97971.34;;;13.19;100.00
12879;BME280;20617;49.476;10.986;2023-04-28T05:52:46;97963.25;;;13.24;100.00
12879;BME280;20617;49.476;10.986;2023-04-28T05:54:52;97960.06;;;13.19;100.00
12879;BME280;20617;49.476;10.986;2023-04-28T05:56:57;97953.13;;;13.18;100.00
12879;BME280;20617;49.476;10.986;2023-04-28T05:59:03;97957.44;;;13.19;100.00
12879;BME280;20617;49.476;10.986;2023-04-28T06:01:08;97965.34;;;13.17;100.00
12879;BME280;20617;49.476;10.986;2023-04-28T06:03:13;97960.31;;;13.14;100.00
12879;BME280;20617;49.476;10.986;2023-04-28T06:05:23;97963.59;;;13.18;100.00
12879;BME280;20617;49.476;10.986;2023-04-28T06:07:29;97957.50;;;13.17;100.00
12879;BME280;20617;49.476;10.986;2023-04-28T06:09:35;97961.44;;;13.10;100.00
12879;BME280;20617;49.476;10.986;2023-04-28T06:11:40;97956.38;;;13.07;100.00
12879;BME280;20617;49.476;10.986;2023-04-28T06:13:45;97962.00;;;13.15;100.00
12879;BME280;20617;49.476;10.986;2023-04-28T06:15:52;97958.22;;;13.21;100.00
12879;BME280;20617;49.476;10.986;2023-04-28T06:17:57;97959.94;;;13.20;100.00
12879;BME280;20617;49.476;10.986;2023-04-28T06:20:03;97963.59;;;13.18;100.00
12879;BME280;20617;49.476;10.986;2023-04-28T06:22:11;97959.22;;;13.18;100.00
12879;BME280;20617;49.476;10.986;2023-04-28T06:24:16;97960.22;;;13.16;100.00
12879;BME280;20617;49.476;10.986;2023-04-28T06:26:22;97963.44;;;13.21;100.00
12879;BME280;20617;49.476;10.986;2023-04-28T06:28:27;97958.88;;;13.24;100.00
12879;BME280;20617;49.476;10.986;2023-04-28T06:30:33;97960.81;;;13.21;100.00
12879;BME280;20617;49.476;10.986;2023-04-28T06:32:39;97952.97;;;13.21;100.00
12879;BME280;20617;49.476;10.986;2023-04-28T06:34:44;97957.81;;;13.12;100.00
12879;BME280;20617;49.476;10.986;2023-04-28T06:36:49;97951.31;;;13.04;100.00
12879;BME280;20617;49.476;10.986;2023-04-28T06:38:56;97951.16;;;13.07;100.00
12879;BME280;20617;49.476;10.986;2023-04-28T06:41:01;97953.66;;;13.08;100.00
12879;BME280;20617;49.476;10.986;2023-04-28T06:43:07;97947.59;;;13.08;100.00
12879;BME280;20617;49.476;10.986;2023-04-28T06:45:17;97946.31;;;13.15;100.00
12879;BME280;20617;49.476;10.986;2023-04-28T06:47:22;97942.00;;;13.14;100.00
12879;BME280;20617;49.476;10.986;2023-04-28T06:49:27;97935.78;;;13.17;100.00
12879;BME280;20617;49.476;10.986;2023-04-28T06:51:34;97931.19;;;13.20;100.00
12879;BME280;20617;49.476;10.986;2023-04-28T06:53:39;97936.44;;;13.20;100.00
12879;BME280;20617;49.476;10.986;2023-04-28T06:55:46;97940.78;;;13.05;100.00
12879;BME280;20617;49.476;10.986;2023-04-28T06:57:51;97934.81;;;13.03;100.00
12879;BME280;20617;49.476;10.986;2023-04-28T06:59:56;97945.03;;;12.92;100.00
12879;BME280;20617;49.476;10.986;2023-04-28T07:02:01;97950.50;;;12.87;100.00
12879;BME280;20617;49.476;10.986;2023-04-28T07:04:06;97952.09;;;12.90;100.00
12879;BME280;20617;49.476;10.986;2023-04-28T07:06:11;97954.13;;;12.85;100.00
12879;BME280;20617;49.476;10.986;2023-04-28T07:08:17;97951.69;;;12.82;100.00
12879;BME280;20617;49.476;10.986;2023-04-28T07:10:22;97937.47;;;12.72;100.00
12879;BME280;20617;49.476;10.986;2023-04-28T07:12:30;97945.38;;;12.70;100.00
12879;BME280;20617;49.476;10.986;2023-04-28T07:14:35;97941.81;;;12.71;100.00
12879;BME280;20617;49.476;10.986;2023-04-28T07:16:43;97941.69;;;12.74;100.00
12879;BME280;20617;49.476;10.986;2023-04-28T07:18:48;97937.47;;;12.72;100.00
12879;BME280;20617;49.476;10.986;2023-04-28T07:20:53;97948.00;;;12.70;100.00
12879;BME280;20617;49.476;10.986;2023-04-28T07:22:57;97954.88;;;12.71;100.00
12879;BME280;20617;49.476;10.986;2023-04-28T07:25:03;97951.38;;;12.72;100.00
12879;BME280;20617;49.476;10.986;2023-04-28T07:27:08;97966.09;;;12.73;100.00
12879;BME280;20617;49.476;10.986;2023-04-28T07:29:16;97971.25;;;12.75;100.00
12879;BME280;20617;49.476;10.986;2023-04-28T07:31:21;97967.94;;;12.71;100.00
12879;BME280;20617;49.476;10.986;2023-04-28T07:33:27;97964.50;;;12.71;100.00
12879;BME280;20617;49.476;10.986;2023-04-28T07:35:32;97975.63;;;12.74;100.00
12879;BME280;20617;49.476;10.986;2023-04-28T07:37:37;97973.75;;;12.76;100.00
12879;BME280;20617;49.476;10.986;2023-04-28T07:39:44;97971.16;;;12.76;100.00
12879;BME280;20617;49.476;10.986;2023-04-28T07:41:49;97972.78;;;12.63;100.00
12879;BME280;20617;49.476;10.986;2023-04-28T07:43:55;97983.44;;;12.58;100.00
12879;BME280;20617;49.476;10.986;2023-04-28T07:46:02;97988.94;;;12.54;100.00
12879;BME280;20617;49.476;10.986;2023-04-28T07:48:07;97985.72;;;12.49;100.00
12879;BME280;20617;49.476;10.986;2023-04-28T07:50:13;97993.91;;;12.42;100.00
12879;BME280;20617;49.476;10.986;2023-04-28T07:52:19;98003.56;;;12.40;100.00
12879;BME280;20617;49.476;10.986;2023-04-28T07:54:24;98003.97;;;12.33;100.00
12879;BME280;20617;49.476;10.986;2023-04-28T07:56:32;98003.13;;;12.32;100.00
12879;BME280;20617;49.476;10.986;2023-04-28T07:58:37;98004.06;;;12.31;100.00
12879;BME280;20617;49.476;10.986;2023-04-28T08:00:41;98006.69;;;12.31;100.00
12879;BME280;20617;49.476;10.986;2023-04-28T08:02:49;98011.81;;;12.33;100.00
12879;BME280;20617;49.476;10.986;2023-04-28T08:04:54;98002.19;;;12.33;100.00
12879;BME280;20617;49.476;10.986;2023-04-28T08:07:00;98008.97;;;12.37;100.00
12879;BME280;20617;49.476;10.986;2023-04-28T08:09:05;98009.47;;;12.44;100.00
12879;BME280;20617;49.476;10.986;2023-04-28T08:11:10;98008.13;;;12.53;100.00
12879;BME280;20617;49.476;10.986;2023-04-28T08:13:15;98009.06;;;12.52;100.00
12879;BME280;20617;49.476;10.986;2023-04-28T08:15:20;98006.44;;;12.52;100.00
12879;BME280;20617;49.476;10.986;2023-04-28T08:17:25;98008.13;;;12.53;100.00
12879;BME280;20617;49.476;10.986;2023-04-28T08:19:33;97999.78;;;12.46;100.00
12879;BME280;20617;49.476;10.986;2023-04-28T08:21:38;98006.00;;;12.43;100.00
12879;BME280;20617;49.476;10.986;2023-04-28T08:23:43;97997.69;;;12.37;100.00
12879;BME280;20617;49.476;10.986;2023-04-28T08:25:48;98001.47;;;12.47;100.00
12879;BME280;20617;49.476;10.986;2023-04-28T08:27:54;98000.47;;;12.50;100.00
12879;BME280;20617;49.476;10.986;2023-04-28T08:29:59;98005.69;;;12.50;100.00
12879;BME280;20617;49.476;10.986;2023-04-28T08:32:05;98004.84;;;12.49;100.00
12879;BME280;20617;49.476;10.986;2023-04-28T08:34:10;98003.00;;;12.51;100.00
12879;BME280;20617;49.476;10.986;2023-04-28T08:36:20;97992.97;;;12.59;100.00
12879;BME280;20617;49.476;10.986;2023-04-28T08:38:26;97988.34;;;12.64;100.00
12879;BME280;20617;49.476;10.986;2023-04-28T08:40:31;97978.56;;;12.68;100.00
12879;BME280;20617;49.476;10.986;2023-04-28T08:42:36;97972.84;;;12.61;100.00
12879;BME280;20617;49.476;10.986;2023-04-28T08:44:41;97965.00;;;12.61;100.00
12879;BME280;20617;49.476;10.986;2023-04-28T08:46:48;97969.47;;;12.59;100.00
12879;BME280;20617;49.476;10.986;2023-04-28T08:48:59;97969.56;;;12.58;100.00
12879;BME280;20617;49.476;10.986;2023-04-28T08:51:06;97965.84;;;12.62;100.00
12879;BME280;20617;49.476;10.986;2023-04-28T08:53:17;97962.06;;;12.67;100.00
12879;BME280;20617;49.476;10.986;2023-04-28T08:55:26;97969.72;;;12.71;100.00
12879;BME280;20617;49.476;10.986;2023-04-28T08:57:34;97964.41;;;12.72;100.00
12879;BME280;20617;49.476;10.986;2023-04-28T08:59:43;97964.31;;;12.74;100.00
12879;BME280;20617;49.476;10.986;2023-04-28T09:01:48;97964.09;;;12.62;100.00
12879;BME280;20617;49.476;10.986;2023-04-28T09:03:53;97968.28;;;12.65;100.00
12879;BME280;20617;49.476;10.986;2023-04-28T09:06:00;97979.59;;;12.65;100.00
12879;BME280;20617;49.476;10.986;2023-04-28T09:08:05;97981.09;;;12.69;100.00
12879;BME280;20617;49.476;10.986;2023-04-28T09:10:20;97988.69;;;12.74;100.00
12879;BME280;20617;49.476;10.986;2023-04-28T09:12:35;97980.84;;;12.74;100.00
12879;BME280;20617;49.476;10.986;2023-04-28T09:14:40;97985.03;;;12.77;100.00
12879;BME280;20617;49.476;10.986;2023-04-28T09:16:45;97978.81;;;12.79;100.00
12879;BME280;20617;49.476;10.986;2023-04-28T09:18:56;97974.94;;;12.86;100.00
12879;BME280;20617;49.476;10.986;2023-04-28T09:21:03;97981.94;;;12.86;100.00
12879;BME280;20617;49.476;10.986;2023-04-28T09:23:12;97982.69;;;12.88;100.00
12879;BME280;20617;49.476;10.986;2023-04-28T09:25:22;97981.44;;;12.95;100.00
12879;BME280;20617;49.476;10.986;2023-04-28T09:27:28;97990.59;;;13.02;100.00
12879;BME280;20617;49.476;10.986;2023-04-28T09:29:33;97980.66;;;13.09;100.00
12879;BME280;20617;49.476;10.986;2023-04-28T09:31:38;97985.00;;;13.08;100.00
12879;BME280;20617;49.476;10.986;2023-04-28T09:33:55;97994.47;;;13.11;100.00
12879;BME280;20617;49.476;10.986;2023-04-28T09:36:01;97993.03;;;13.05;100.00
12879;BME280;20617;49.476;10.986;2023-04-28T09:38:06;97992.13;;;13.06;100.00
12879;BME280;20617;49.476;10.986;2023-04-28T09:40:11;97992.69;;;13.11;100.00
12879;BME280;20617;49.476;10.986;2023-04-28T09:42:33;97983.47;;;13.20;100.00
12879;BME280;20617;49.476;10.986;2023-04-28T09:44:38;97985.84;;;13.25;100.00
12879;BME280;20617;49.476;10.986;2023-04-28T09:46:44;97980.94;;;13.34;100.00
12879;BME280;20617;49.476;10.986;2023-04-28T09:48:59;97968.38;;;13.41;100.00
12879;BME280;20617;49.476;10.986;2023-04-28T09:51:06;97976.53;;;13.51;100.00
12879;BME280;20617;49.476;10.986;2023-04-28T09:53:14;97966.81;;;13.53;100.00
12879;BME280;20617;49.476;10.986;2023-04-28T09:55:19;97976.56;;;13.65;100.00
12879;BME280;20617;49.476;10.986;2023-04-28T09:57:25;97985.72;;;13.72;100.00
12879;BME280;20617;49.476;10.986;2023-04-28T09:59:35;97987.97;;;13.78;100.00
12879;BME280;20617;49.476;10.986;2023-04-28T10:01:42;97980.47;;;13.72;100.00
12879;BME280;20617;49.476;10.986;2023-04-28T10:03:48;97969.72;;;13.63;100.00
12879;BME280;20617;49.476;10.986;2023-04-28T10:05:58;97954.88;;;13.63;100.00
12879;BME280;20617;49.476;10.986;2023-04-28T10:08:03;97964.06;;;13.70;100.00
12879;BME280;20617;49.476;10.986;2023-04-28T10:10:09;97960.88;;;13.79;100.00
12879;BME280;20617;49.476;10.986;2023-04-28T10:12:16;97952.28;;;13.92;100.00
12879;BME280;20617;49.476;10.986;2023-04-28T10:14:23;97941.06;;;14.04;100.00
12879;BME280;20617;49.476;10.986;2023-04-28T10:16:31;97941.06;;;14.04;100.00
12879;BME280;20617;49.476;10.986;2023-04-28T10:18:36;97945.53;;;14.02;100.00
12879;BME280;20617;49.476;10.986;2023-04-28T10:20:43;97933.41;;;14.01;100.00
12879;BME280;20617;49.476;10.986;2023-04-28T10:22:58;97923.41;;;14.08;100.00
12879;BME280;20617;49.476;10.986;2023-04-28T10:25:25;97924.06;;;14.25;100.00
12879;BME280;20617;49.476;10.986;2023-04-28T10:27:30;97934.88;;;14.34;100.00
12879;BME280;20617;49.476;10.986;2023-04-28T10:29:36;97939.06;;;14.36;100.00
12879;BME280;20617;49.476;10.986;2023-04-28T10:32:15;97918.69;;;14.41;100.00
12879;BME280;20617;49.476;10.986;2023-04-28T10:34:21;97928.41;;;14.39;100.00
12879;BME280;20617;49.476;10.986;2023-04-28T10:36:47;97939.25;;;14.47;100.00
12879;BME280;20617;49.476;10.986;2023-04-28T10:39:09;97931.13;;;14.38;100.00
12879;BME280;20617;49.476;10.986;2023-04-28T10:41:33;97928.41;;;14.39;100.00
12879;BME280;20617;49.476;10.986;2023-04-28T10:43:38;97928.97;;;14.44;100.00
12879;BME280;20617;49.476;10.986;2023-04-28T10:45:58;97930.44;;;14.48;100.00
12879;BME280;20617;49.476;10.986;2023-04-28T10:48:07;97938.22;;;14.50;100.00
12879;BME280;20617;49.476;10.986;2023-04-28T10:50:12;97931.88;;;14.54;100.00
12879;BME280;20617;49.476;10.986;2023-04-28T10:52:48;97920.06;;;14.61;100.00
12879;BME280;20617;49.476;10.986;2023-04-28T10:57:29;97918.06;;;14.79;100.00